MPTO/PTY METAR and TAF weather

Enter ICAO airport designator
Station Type Date Time Source
MPTO METAR 2022/06/29 00:00 UTC NOAA

MPTO 290000Z 00000KT 9999 FEW008 SCT016 BKN090 23/23 Q1012 RERA RWY WET NOSIG


Station Type Date Time Source
MPTO Decoded METAR 2022/06/29 00:00 UTC NOAA

Tocumen, Panama (MPTO) 09-03N 079-22W
Jun 28, 2022 - 08:00 PM EDT / 2022.06.29 0000 UTC
Wind: Calm:0
Visibility: greater than 7 mile(s):0
Sky conditions: mostly cloudy
Temperature: 73 F (23 C)
Dew Point: 73 F (23 C)
Relative Humidity: 100%
Pressure (altimeter): 29.88 in. Hg (1012 hPa)
ob: MPTO 290000Z 00000KT 9999 FEW008 SCT016 BKN090 23/23 Q1012 RERA RWY WET NOSIG
cycle: 0

Station Type Date Time Source
MPTO TAF 2022/06/28 18:06 UTC NOAA

TAF MPTO 281700Z 2818/2924 17006KT 9999 SCT018 SCT090 PROB30 2819/2823 7000 TSRA SCT016CB BKN080
TEMPO 2900/2904 24004KT

Example: see airport list